Aeroporto :
LOGIN :

Iscrizione | Disclaimer

   EN    FR    IT 

 










Sommario :    VFR   VFR Marginale   IFR   IFR Intensivo   IFR Molto Intensivo
Visibilità : 
Base nubi : 
>= 8 km
>= 3000ft
5 / 8 km
1000 / 3000 ft
1500m / 5 km
500 / 1000 ft
800 / 1500m
200 / 500 ft
< 800m
< 200 ft
Simboli :   Temporali  Nebbia  Neve Forte  Precipitazioni Forti  Vento > 20 kt
SIGMETs :   Varie  Temporali  Ghiacco  Turbolenza  Onda orograficha  Ceneri Vulcaniche






- Altitudine del aeroporto : 538 ft
- Codice IATA : TNF


LFPN - Toussus Le Noble

ULTIMO METAR :
  • 091000Z AUTO 31022KT 9999 BKN031 BKN038 09/05 Q1006 TEMPO 30020G35KT 4000 SHRA SCT020TCU

METARs OBSOLETI :
  • 090930Z AUTO 30024G34KT 9999 -RA SCT021 OVC028 08/06 Q1005 TEMPO 4000 SHRA SCT020TCU
  • 090900Z AUTO 29020G31KT 9999 -RA BKN016/// BKN021/// OVC027/// ///TCU 08/06 Q1004 TEMPO 4000 SHRA SCT020CB
  • 090830Z AUTO 26016KT 4500 RA BR BKN016/// BKN021/// OVC028/// ///TCU 07/06 Q1003 TEMPO 30020G35KT BECMG 9999 NSW
  • 090800Z AUTO 25017KT 9999 -RA BKN023/// OVC029/// ///CB 07/05 Q1002 TEMPO 30020G35KT 4000 SHRA
  • 090730Z AUTO 24016KT 9999 RA BKN018/// BKN025/// OVC031/// ///CB 07/05 Q1002 TEMPO 30020G35KT 4000 SHRA

TAF TAF LFPN
Valido dal 09 a 09 ore il 09 a 18 ore UTC


090800Z 0909/0918 28015G25KT 9999 BKN020
TEMPO 0909/0911 28020G35KT 4000 SHRA SCT020CB
PROB40
TEMPO 0911/0915 30020G35KT -SHRA SCT020TCU
ATIS : +33 1 39 56 54 70



MetMap, La meteo Aeronautica in un colpo d'occhio ! - Copyright ORBIFLY Dicembre 2007 - Disclaimer

ORBIFLY MET'MAP TEAM :

Programmazione e sviluppo : Alexandra Zaïnal
Concezione : Baudouin d'Aumeries
Aiuto per la programmazione : Marc-Olivier Méhu
Supporto tecnico e logistico : Manuel Goepfert
Aiuto per la traduzione : Arnaldo La Scala

Contatto : metmap@orbifly.com




FONTI E CREDITI :

   NOAA